Time;durP1;ratioP1;P1;durP2;ratioP2;P2;SDS_P1;SDS_P2;PMS_P1;PMS_P2;Temp;Humidity;BMP_temperature;BMP_pressure;BME280_temperature;BME280_humidity;BME280_pressure;Samples;Min_cycle;Max_cycle;Signal;HPM_P1;HPM_P2
2023/05/16 00:01:31;;;;;;;6.68;5.18;;;11.30;99.90;;;;;;4981738;28;20038;-74
2023/05/16 00:03:56;;;;;;;9.52;5.43;;;11.30;99.90;;;;;;4969207;28;20026;-74
2023/05/16 00:06:22;;;;;;;7.20;5.47;;;11.30;99.90;;;;;;4962849;28;20027;-74
2023/05/16 00:08:48;;;;;;;9.80;5.20;;;11.30;99.90;;;;;;4969381;28;20037;-74
2023/05/16 00:11:16;;;;;;;8.45;6.45;;;11.30;99.90;;;;;;4981356;28;20505;-75
2023/05/16 00:13:41;;;;;;;13.88;5.35;;;11.20;99.90;;;;;;4982146;28;20035;-75
2023/05/16 00:16:07;;;;;;;8.23;5.45;;;11.20;99.90;;;;;;4972735;28;20401;-75
2023/05/16 00:18:36;;;;;;;7.35;4.75;;;11.20;99.90;;;;;;4968810;28;20034;-74
2023/05/16 00:21:02;;;;;;;6.63;5.20;;;11.20;99.90;;;;;;4964927;28;20111;-74
2023/05/16 00:23:28;;;;;;;7.05;5.78;;;11.20;99.90;;;;;;4970076;28;20026;-74
2023/05/16 00:25:56;;;;;;;9.07;6.18;;;11.20;99.90;;;;;;4969813;28;20433;-74
2023/05/16 00:28:31;;;;;;;7.75;6.03;;;11.20;99.90;;;;;;4969039;28;20030;-74
2023/05/16 00:30:57;;;;;;;7.07;5.05;;;11.20;99.90;;;;;;4968733;28;20038;-74
2023/05/16 00:33:22;;;;;;;8.38;4.90;;;11.20;99.90;;;;;;4975356;28;20102;-74
2023/05/16 00:35:48;;;;;;;7.80;5.60;;;11.10;99.90;;;;;;4969181;28;20027;-75
2023/05/16 00:38:16;;;;;;;9.18;4.80;;;11.10;99.90;;;;;;4965080;28;20101;-74
2023/05/16 00:40:42;;;;;;;7.38;4.82;;;11.10;99.90;;;;;;4982499;28;20085;-74
2023/05/16 00:43:13;;;;;;;7.38;5.38;;;11.00;99.90;;;;;;4969474;28;20060;-74
2023/05/16 00:45:39;;;;;;;6.43;4.90;;;11.00;99.90;;;;;;4965997;28;20062;-74
2023/05/16 00:48:05;;;;;;;8.27;4.88;;;11.00;99.90;;;;;;4968615;28;20162;-74
2023/05/16 00:50:33;;;;;;;10.00;4.88;;;11.10;99.90;;;;;;4965406;28;20109;-74
2023/05/16 00:52:59;;;;;;;8.38;5.82;;;11.10;99.90;;;;;;4969227;28;20034;-74
2023/05/16 00:55:24;;;;;;;6.60;4.97;;;11.10;99.90;;;;;;4967706;28;20037;-74
2023/05/16 00:57:51;;;;;;;7.30;5.03;;;11.10;99.90;;;;;;4966743;28;20090;-74
2023/05/16 01:00:18;;;;;;;8.73;5.60;;;11.10;99.90;;;;;;4968476;28;21039;-74
2023/05/16 01:02:45;;;;;;;9.88;5.30;;;11.10;99.90;;;;;;4967479;28;20049;-74
2023/05/16 01:05:11;;;;;;;6.68;4.43;;;11.10;99.90;;;;;;4965974;28;20062;-74
2023/05/16 01:07:37;;;;;;;7.07;5.32;;;11.10;99.90;;;;;;4967119;28;20727;-74
2023/05/16 01:10:06;;;;;;;8.45;5.60;;;11.10;99.90;;;;;;4966627;28;20022;-74
2023/05/16 01:13:09;;;;;;;9.10;6.30;;;11.10;99.90;;;;;;4966586;28;20034;-74
2023/05/16 01:15:58;;;;;;;8.75;6.03;;;11.10;99.90;;;;;;4968139;28;20015;-74
2023/05/16 01:19:00;;;;;;;9.45;6.40;;;11.10;99.90;;;;;;4966217;28;20022;-74
2023/05/16 01:21:39;;;;;;;8.43;5.43;;;11.10;99.90;;;;;;4978599;28;20166;-74
2023/05/16 01:24:37;;;;;;;10.45;5.55;;;11.10;99.90;;;;;;4981861;28;20015;-74
2023/05/16 01:27:04;;;;;;;8.85;5.72;;;11.10;99.90;;;;;;4982416;28;20027;-74
2023/05/16 01:29:31;;;;;;;8.90;6.03;;;11.10;99.90;;;;;;4977959;28;20653;-74
2023/05/16 01:31:57;;;;;;;9.68;5.68;;;11.10;99.90;;;;;;4966205;28;20041;-74
2023/05/16 01:34:22;;;;;;;7.22;5.35;;;11.10;99.90;;;;;;4962964;28;20035;-75
2023/05/16 01:37:25;;;;;;;7.28;4.97;;;11.10;99.90;;;;;;4965927;28;20468;-74
2023/05/16 01:40:06;;;;;;;10.10;6.03;;;11.00;99.90;;;;;;4969819;28;20035;-74
2023/05/16 01:42:36;;;;;;;7.90;5.18;;;11.00;99.90;;;;;;4969124;28;20445;-74
2023/05/16 01:45:13;;;;;;;7.97;4.53;;;11.00;99.90;;;;;;4969773;28;20386;-74
2023/05/16 01:47:45;;;;;;;8.23;5.53;;;11.00;99.90;;;;;;4967931;28;20089;-74
2023/05/16 01:50:19;;;;;;;7.13;5.07;;;11.00;99.90;;;;;;4983384;28;20117;-74
2023/05/16 01:53:05;;;;;;;6.57;4.35;;;11.00;99.90;;;;;;4969898;28;20027;-74
2023/05/16 01:55:34;;;;;;;6.43;5.18;;;11.00;99.90;;;;;;4967314;28;20090;-74
2023/05/16 01:58:07;;;;;;;8.43;6.43;;;11.00;99.90;;;;;;4970288;28;20027;-75
2023/05/16 02:00:33;;;;;;;10.23;6.72;;;11.00;99.90;;;;;;4968638;28;20429;-74
2023/05/16 02:02:58;;;;;;;10.88;6.63;;;11.00;99.90;;;;;;4970266;28;20046;-74
2023/05/16 02:05:24;;;;;;;9.32;6.50;;;11.00;99.90;;;;;;4968224;28;20971;-75
2023/05/16 02:07:50;;;;;;;11.05;7.10;;;11.10;99.90;;;;;;4969260;28;20109;-75
2023/05/16 02:10:19;;;;;;;10.50;7.15;;;11.10;99.90;;;;;;4967743;28;20027;-75
2023/05/16 02:12:44;;;;;;;9.02;6.63;;;11.10;99.90;;;;;;4970286;28;20023;-75
2023/05/16 02:15:10;;;;;;;12.13;7.13;;;11.10;99.90;;;;;;4968479;28;20114;-74
2023/05/16 02:17:36;;;;;;;12.57;7.28;;;11.10;99.90;;;;;;4966600;28;20038;-74
2023/05/16 02:20:06;;;;;;;11.23;7.25;;;11.10;99.90;;;;;;4966983;28;20031;-74
2023/05/16 02:22:35;;;;;;;12.85;7.05;;;11.10;99.90;;;;;;4965880;28;20714;-74
2023/05/16 02:25:02;;;;;;;9.13;7.13;;;11.20;99.90;;;;;;4967042;28;20375;-74
2023/05/16 02:27:28;;;;;;;10.55;6.72;;;11.20;99.90;;;;;;4969151;28;20026;-74
2023/05/16 02:29:54;;;;;;;9.70;7.22;;;11.20;99.90;;;;;;4967861;28;20030;-74
2023/05/16 02:32:22;;;;;;;11.68;7.53;;;11.20;99.90;;;;;;4967248;28;20054;-74
2023/05/16 02:34:48;;;;;;;11.65;8.48;;;11.20;99.90;;;;;;4965265;28;20046;-75
2023/05/16 02:37:13;;;;;;;13.43;8.82;;;11.20;99.90;;;;;;4965982;28;20042;-74
2023/05/16 02:39:39;;;;;;;11.60;8.32;;;11.20;99.90;;;;;;4965716;28;20038;-74
2023/05/16 02:42:06;;;;;;;13.07;8.80;;;11.20;99.90;;;;;;4969561;28;20397;-74
2023/05/16 02:44:32;;;;;;;13.20;9.57;;;11.30;99.90;;;;;;4971002;28;20382;-74
2023/05/16 02:46:58;;;;;;;14.45;10.15;;;11.20;99.90;;;;;;4970490;28;20030;-75
2023/05/16 02:49:24;;;;;;;15.10;10.57;;;11.30;99.90;;;;;;4967570;28;20026;-75
2023/05/16 02:51:52;;;;;;;17.95;11.65;;;11.30;99.90;;;;;;4975300;28;20109;-74
2023/05/16 02:54:18;;;;;;;12.27;9.65;;;11.30;99.90;;;;;;4968176;28;20038;-74
2023/05/16 02:56:46;;;;;;;13.63;10.38;;;11.30;99.90;;;;;;4971855;28;20105;-73
2023/05/16 02:59:12;;;;;;;15.55;10.88;;;11.30;99.90;;;;;;4968137;28;20509;-74
2023/05/16 03:01:41;;;;;;;14.23;11.55;;;11.30;99.90;;;;;;4969456;28;20114;-74
2023/05/16 03:04:07;;;;;;;16.42;10.45;;;11.30;99.90;;;;;;4969629;28;20031;-74
2023/05/16 03:06:35;;;;;;;14.73;11.13;;;11.30;99.90;;;;;;4970851;28;20029;-74
2023/05/16 03:09:04;;;;;;;14.98;10.88;;;11.40;99.90;;;;;;4968940;28;20405;-74
2023/05/16 03:11:32;;;;;;;14.55;9.73;;;11.40;99.90;;;;;;4971722;28;20062;-75
2023/05/16 03:13:58;;;;;;;12.25;8.85;;;11.40;99.90;;;;;;4966019;28;20097;-74
2023/05/16 03:16:24;;;;;;;12.70;9.10;;;11.40;99.90;;;;;;4970994;28;20030;-74
2023/05/16 03:18:53;;;;;;;12.32;8.45;;;11.40;99.90;;;;;;4968174;28;20504;-74
2023/05/16 03:21:21;;;;;;;13.27;8.75;;;11.40;99.90;;;;;;4968028;28;20030;-74
2023/05/16 03:23:47;;;;;;;11.93;8.88;;;11.50;99.90;;;;;;4965292;28;20181;-74
2023/05/16 03:26:20;;;;;;;15.45;9.48;;;11.50;99.90;;;;;;4970373;28;20110;-74
2023/05/16 03:28:45;;;;;;;13.77;9.48;;;11.50;99.90;;;;;;4970619;28;20442;-74
2023/05/16 03:31:14;;;;;;;17.73;9.70;;;11.50;99.90;;;;;;4967498;28;20026;-74
2023/05/16 03:33:39;;;;;;;22.60;10.00;;;11.60;99.90;;;;;;4969088;28;20042;-75
2023/05/16 03:36:05;;;;;;;14.82;9.70;;;11.50;99.90;;;;;;4968111;28;20386;-74
2023/05/16 03:38:31;;;;;;;13.88;9.55;;;11.50;99.90;;;;;;4968633;28;20034;-74
2023/05/16 03:40:57;;;;;;;14.85;10.38;;;11.60;99.90;;;;;;4973008;28;20030;-74
2023/05/16 03:43:22;;;;;;;14.82;10.00;;;11.60;99.90;;;;;;4967529;28;20027;-74
2023/05/16 03:45:51;;;;;;;14.10;9.38;;;11.60;99.90;;;;;;4962625;28;20045;-73
2023/05/16 03:48:20;;;;;;;15.00;9.63;;;11.60;99.90;;;;;;4966783;28;20035;-74
2023/05/16 03:50:46;;;;;;;12.88;9.75;;;11.70;99.90;;;;;;4968934;28;20054;-73
2023/05/16 03:53:12;;;;;;;15.98;10.77;;;11.60;99.90;;;;;;4971743;28;20030;-74
2023/05/16 03:55:40;;;;;;;19.52;13.45;;;11.70;99.90;;;;;;4971007;28;20054;-73
2023/05/16 03:58:06;;;;;;;17.40;11.60;;;11.70;99.90;;;;;;4964312;28;20401;-74
2023/05/16 04:00:33;;;;;;;16.67;11.60;;;11.70;99.90;;;;;;4970264;28;20106;-73
2023/05/16 04:02:59;;;;;;;16.30;10.82;;;11.70;99.90;;;;;;4971494;28;20046;-73
2023/05/16 04:05:25;;;;;;;17.25;11.52;;;11.80;99.90;;;;;;4970179;28;20034;-74
2023/05/16 04:07:50;;;;;;;22.17;13.40;;;11.80;99.90;;;;;;4972849;28;20022;-74
2023/05/16 04:10:16;;;;;;;24.65;13.95;;;11.70;99.90;;;;;;4970455;28;20027;-74
2023/05/16 04:12:43;;;;;;;22.42;12.85;;;11.80;99.90;;;;;;4972484;28;20161;-74
2023/05/16 04:15:11;;;;;;;19.63;13.60;;;11.80;99.90;;;;;;4969563;28;20378;-74
2023/05/16 04:17:37;;;;;;;22.58;13.93;;;11.80;99.90;;;;;;4969626;28;20030;-74
2023/05/16 04:20:12;;;;;;;22.52;15.07;;;11.70;99.90;;;;;;4967732;28;20027;-73
2023/05/16 04:22:37;;;;;;;27.90;16.42;;;11.70;99.90;;;;;;4971250;28;20153;-74
2023/05/16 04:25:03;;;;;;;25.83;15.95;;;11.70;99.90;;;;;;4966539;28;20199;-73
2023/05/16 04:27:30;;;;;;;29.95;18.98;;;11.70;99.90;;;;;;4970589;28;20031;-74
2023/05/16 04:29:56;;;;;;;29.45;18.42;;;11.70;99.90;;;;;;4968081;28;20121;-74
2023/05/16 04:32:22;;;;;;;37.53;19.40;;;11.70;99.90;;;;;;4970509;28;20158;-74
2023/05/16 04:34:53;;;;;;;33.22;19.40;;;11.70;99.90;;;;;;4966540;28;20395;-74
2023/05/16 04:37:24;;;;;;;39.50;22.55;;;11.70;99.90;;;;;;4970260;28;20138;-74
2023/05/16 04:39:50;;;;;;;37.50;21.95;;;11.70;99.90;;;;;;4981381;28;20063;-74
2023/05/16 04:42:16;;;;;;;43.28;23.65;;;11.80;99.90;;;;;;4965793;28;20026;-74
2023/05/16 04:44:42;;;;;;;41.67;23.73;;;11.80;99.90;;;;;;4970501;28;20394;-74
2023/05/16 04:47:08;;;;;;;44.80;23.98;;;11.70;99.90;;;;;;4963411;28;20106;-74
2023/05/16 04:49:36;;;;;;;42.70;23.13;;;11.70;99.90;;;;;;4969473;28;20162;-73
2023/05/16 04:52:02;;;;;;;40.25;23.67;;;11.70;99.90;;;;;;4968426;28;20918;-73
2023/05/16 04:54:31;;;;;;;39.72;24.75;;;11.60;99.90;;;;;;4970239;28;20033;-74
2023/05/16 04:57:00;;;;;;;37.35;22.58;;;11.60;99.90;;;;;;4965370;28;20654;-74
2023/05/16 04:59:26;;;;;;;41.83;25.27;;;11.60;99.90;;;;;;4968418;28;20031;-74
2023/05/16 05:01:51;;;;;;;41.95;24.73;;;11.60;99.90;;;;;;4967001;28;20494;-74
2023/05/16 05:04:18;;;;;;;40.42;22.58;;;11.70;99.90;;;;;;4968541;28;20078;-74
2023/05/16 05:06:44;;;;;;;38.63;23.15;;;11.70;99.90;;;;;;4967919;28;20042;-74
2023/05/16 05:09:12;;;;;;;38.78;23.88;;;11.70;99.90;;;;;;4967854;28;20069;-74
2023/05/16 05:11:38;;;;;;;42.20;24.58;;;11.70;99.90;;;;;;4970925;28;20037;-74
2023/05/16 05:14:04;;;;;;;43.47;24.85;;;11.70;99.90;;;;;;4965880;28;20031;-74
2023/05/16 05:16:30;;;;;;;43.88;24.77;;;11.70;99.90;;;;;;4966143;28;20478;-74
2023/05/16 05:18:55;;;;;;;44.58;26.63;;;11.70;99.90;;;;;;4964343;28;20035;-74
2023/05/16 05:21:24;;;;;;;46.42;25.38;;;11.70;99.90;;;;;;4966855;28;20029;-73
2023/05/16 05:23:50;;;;;;;50.75;27.55;;;11.70;99.90;;;;;;4977836;28;22597;-73
2023/05/16 05:26:16;;;;;;;49.00;27.02;;;11.60;99.90;;;;;;4961276;28;20102;-74
2023/05/16 05:28:45;;;;;;;50.38;26.00;;;11.60;99.90;;;;;;4966677;28;21858;-74
2023/05/16 05:31:20;;;;;;;49.00;28.08;;;11.60;99.90;;;;;;4972854;28;20114;-74
2023/05/16 05:33:45;;;;;;;56.95;28.17;;;11.60;99.90;;;;;;4962970;28;20098;-75
2023/05/16 05:36:11;;;;;;;53.72;29.40;;;11.60;99.90;;;;;;4975548;28;20039;-72
2023/05/16 05:38:37;;;;;;;52.05;29.00;;;11.60;99.90;;;;;;4964787;28;20031;-73
2023/05/16 05:41:03;;;;;;;54.53;29.98;;;11.60;99.90;;;;;;4963749;28;20597;-73
2023/05/16 05:43:37;;;;;;;51.83;28.95;;;11.60;99.90;;;;;;4979274;28;20081;-73
2023/05/16 05:46:03;;;;;;;51.17;28.10;;;11.60;99.90;;;;;;4965928;28;20386;-73
2023/05/16 05:48:31;;;;;;;50.92;28.40;;;11.60;99.90;;;;;;4961436;28;20039;-74
2023/05/16 05:50:56;;;;;;;50.70;29.00;;;11.60;99.90;;;;;;4965777;28;20042;-72
2023/05/16 05:53:25;;;;;;;52.47;28.55;;;11.60;99.90;;;;;;4967444;28;20031;-74
2023/05/16 05:55:51;;;;;;;56.83;30.98;;;11.60;99.90;;;;;;4966913;28;20027;-74
2023/05/16 05:58:17;;;;;;;53.63;28.48;;;11.60;99.90;;;;;;4965303;28;20482;-74
2023/05/16 06:00:43;;;;;;;60.70;29.25;;;11.70;99.90;;;;;;4963814;28;20138;-75
2023/05/16 06:03:15;;;;;;;54.75;30.52;;;11.70;99.90;;;;;;4965334;28;20157;-74
2023/05/16 06:05:41;;;;;;;57.95;30.55;;;11.70;99.90;;;;;;4966748;28;20034;-75
2023/05/16 06:08:07;;;;;;;51.50;28.27;;;11.70;99.90;;;;;;4971502;28;20026;-74
2023/05/16 06:10:33;;;;;;;57.30;31.48;;;11.60;99.90;;;;;;4964641;28;20031;-74
2023/05/16 06:13:01;;;;;;;65.20;29.27;;;11.60;99.90;;;;;;4963676;28;20464;-74
2023/05/16 06:15:30;;;;;;;51.60;27.95;;;11.70;99.90;;;;;;4959464;28;20027;-75
2023/05/16 06:17:56;;;;;;;50.95;29.00;;;11.70;99.90;;;;;;4965234;28;20037;-75
2023/05/16 06:20:22;;;;;;;54.95;31.55;;;11.70;99.90;;;;;;4972021;28;20034;-75
2023/05/16 06:22:48;;;;;;;51.78;28.98;;;11.70;99.90;;;;;;4966667;28;20027;-75
2023/05/16 06:25:13;;;;;;;57.92;30.27;;;11.70;99.90;;;;;;4966878;28;20059;-75
2023/05/16 06:27:39;;;;;;;55.13;30.95;;;11.60;99.90;;;;;;4969636;28;20397;-74
2023/05/16 06:30:05;;;;;;;52.92;29.65;;;11.60;99.90;;;;;;4964228;28;20049;-74
2023/05/16 06:32:31;;;;;;;58.17;30.35;;;11.60;99.90;;;;;;4968592;28;20031;-75
2023/05/16 06:34:57;;;;;;;58.28;30.95;;;11.70;99.90;;;;;;4969513;28;20037;-75
2023/05/16 06:37:22;;;;;;;55.83;29.65;;;11.60;99.90;;;;;;4974032;28;20474;-75
2023/05/16 06:39:51;;;;;;;53.20;29.85;;;11.60;99.90;;;;;;4971956;28;20035;-74
2023/05/16 06:42:20;;;;;;;54.80;29.27;;;11.60;99.90;;;;;;4971947;28;20027;-74
2023/05/16 06:44:46;;;;;;;51.10;28.17;;;11.60;99.90;;;;;;4970684;28;20030;-74
2023/05/16 06:47:15;;;;;;;53.65;29.40;;;11.50;99.90;;;;;;4970185;28;20023;-75
2023/05/16 06:49:40;;;;;;;56.15;29.50;;;11.50;99.90;;;;;;4966309;28;20227;-74
2023/05/16 06:52:09;;;;;;;55.40;30.05;;;11.50;99.90;;;;;;4967372;28;20027;-74
2023/05/16 06:54:35;;;;;;;56.65;29.55;;;11.50;99.90;;;;;;4974056;28;20038;-74
2023/05/16 06:57:02;;;;;;;53.35;29.13;;;11.60;99.90;;;;;;4973058;28;20445;-75
2023/05/16 06:59:27;;;;;;;52.08;28.40;;;11.60;99.90;;;;;;4971856;28;20709;-74
2023/05/16 07:02:00;;;;;;;47.78;28.45;;;11.60;99.90;;;;;;4963960;28;20110;-75
2023/05/16 07:04:31;;;;;;;48.90;27.88;;;11.60;99.90;;;;;;4974497;28;20023;-75
2023/05/16 07:06:57;;;;;;;51.30;27.88;;;11.60;99.90;;;;;;4972335;28;20038;-74
2023/05/16 07:09:23;;;;;;;48.55;27.50;;;11.60;99.90;;;;;;4970096;28;20426;-74
2023/05/16 07:11:51;;;;;;;52.10;28.48;;;11.60;99.90;;;;;;4973425;28;20033;-75
2023/05/16 07:14:20;;;;;;;47.65;26.50;;;11.60;99.90;;;;;;4974213;28;20031;-74
2023/05/16 07:16:46;;;;;;;54.45;28.50;;;11.60;99.90;;;;;;4975326;28;20410;-75
2023/05/16 07:19:11;;;;;;;47.30;26.88;;;11.60;99.90;;;;;;4974457;28;20118;-75
2023/05/16 07:21:37;;;;;;;54.53;27.75;;;11.60;99.90;;;;;;4971627;28;20051;-74
2023/05/16 07:24:03;;;;;;;50.20;27.73;;;11.50;99.90;;;;;;4973599;28;20096;-75
2023/05/16 07:26:29;;;;;;;45.13;26.25;;;11.60;99.90;;;;;;4972585;28;20032;-74
2023/05/16 07:28:54;;;;;;;51.72;27.40;;;11.60;99.90;;;;;;4973620;28;20038;-74
2023/05/16 07:31:20;;;;;;;47.47;26.67;;;11.60;99.90;;;;;;4970487;28;20057;-74
2023/05/16 07:33:48;;;;;;;46.60;26.55;;;11.60;99.90;;;;;;4973387;28;20038;-74
2023/05/16 07:36:15;;;;;;;43.53;24.15;;;11.60;99.90;;;;;;4971370;28;20102;-74
2023/05/16 07:38:41;;;;;;;44.58;25.60;;;11.60;99.90;;;;;;4974780;28;20033;-74
2023/05/16 07:41:06;;;;;;;39.00;23.17;;;11.60;99.90;;;;;;4969054;28;20027;-74
2023/05/16 07:43:35;;;;;;;44.42;25.55;;;11.60;99.90;;;;;;4973693;28;20030;-74
2023/05/16 07:46:02;;;;;;;36.65;22.83;;;11.70;99.90;;;;;;4972897;28;20073;-75
2023/05/16 07:48:27;;;;;;;39.92;23.70;;;11.70;99.90;;;;;;4970433;28;20042;-74
2023/05/16 07:50:59;;;;;;;38.90;22.00;;;11.70;99.90;;;;;;4970988;28;20038;-74
2023/05/16 07:53:25;;;;;;;36.70;22.30;;;11.70;99.90;;;;;;4971255;28;20074;-73
2023/05/16 07:55:57;;;;;;;35.75;21.85;;;11.70;99.90;;;;;;4969807;28;20031;-74
2023/05/16 07:58:22;;;;;;;36.67;20.77;;;11.70;99.90;;;;;;4979983;28;20031;-73
2023/05/16 08:00:48;;;;;;;38.80;22.02;;;11.70;99.90;;;;;;4967811;28;20023;-74
2023/05/16 08:03:14;;;;;;;35.17;21.52;;;11.70;99.90;;;;;;4974798;28;20030;-74
2023/05/16 08:05:39;;;;;;;42.92;22.20;;;11.70;99.90;;;;;;4971858;28;20038;-74
2023/05/16 08:08:05;;;;;;;35.28;21.67;;;11.60;99.90;;;;;;4976508;28;20026;-73
2023/05/16 08:10:31;;;;;;;33.67;21.48;;;11.70;99.90;;;;;;4973395;28;20023;-74
2023/05/16 08:12:57;;;;;;;38.20;22.05;;;11.70;99.90;;;;;;4972491;28;20026;-74
2023/05/16 08:15:22;;;;;;;33.90;20.98;;;11.70;99.90;;;;;;4971282;28;20019;-74
2023/05/16 08:17:49;;;;;;;34.42;20.40;;;11.70;99.90;;;;;;4967678;28;20093;-74
2023/05/16 08:20:14;;;;;;;36.80;20.38;;;11.70;99.90;;;;;;4968853;28;20019;-74
2023/05/16 08:22:40;;;;;;;32.95;19.70;;;11.70;99.90;;;;;;4968980;28;20394;-74
2023/05/16 08:25:09;;;;;;;34.05;20.10;;;11.70;99.90;;;;;;4973552;28;20023;-73
2023/05/16 08:27:34;;;;;;;31.92;20.35;;;11.70;99.90;;;;;;4974060;28;20105;-74
2023/05/16 08:30:10;;;;;;;34.78;21.00;;;11.70;99.90;;;;;;4968655;28;20502;-74
2023/05/16 08:32:36;;;;;;;36.20;20.73;;;11.70;99.90;;;;;;4968325;28;20394;-74
2023/05/16 08:35:02;;;;;;;32.83;20.73;;;11.70;99.90;;;;;;4970724;28;20027;-74
2023/05/16 08:37:34;;;;;;;33.55;20.90;;;11.70;99.90;;;;;;4967189;28;20038;-74
2023/05/16 08:39:59;;;;;;;30.80;20.00;;;11.70;99.90;;;;;;4970322;28;20031;-74
2023/05/16 08:42:28;;;;;;;31.02;18.77;;;11.70;99.90;;;;;;4971897;28;20041;-74
2023/05/16 08:44:54;;;;;;;32.80;19.00;;;11.70;99.90;;;;;;4970231;28;20386;-74
2023/05/16 08:47:25;;;;;;;27.73;18.23;;;11.70;99.90;;;;;;4964147;28;20030;-74
2023/05/16 08:49:53;;;;;;;27.77;18.38;;;11.70;99.90;;;;;;4971311;28;20039;-74
2023/05/16 08:52:28;;;;;;;25.23;16.20;;;11.60;99.90;;;;;;4967625;28;22764;-74
2023/05/16 08:54:55;;;;;;;23.58;15.20;;;11.60;99.90;;;;;;4972212;28;20022;-74
2023/05/16 08:57:21;;;;;;;26.98;15.02;;;11.60;99.90;;;;;;4972054;28;20027;-73
2023/05/16 08:59:47;;;;;;;20.17;13.98;;;11.60;99.90;;;;;;4963743;28;20104;-74
2023/05/16 09:02:13;;;;;;;19.13;12.93;;;11.60;99.90;;;;;;4968579;28;20031;-74
2023/05/16 09:04:46;;;;;;;20.17;12.00;;;11.60;99.90;;;;;;4967465;28;20037;-74
2023/05/16 09:07:12;;;;;;;17.58;12.10;;;11.60;99.90;;;;;;4978169;28;20027;-74
2023/05/16 09:09:41;;;;;;;16.92;11.73;;;11.60;99.90;;;;;;4968161;28;20046;-74
2023/05/16 09:12:10;;;;;;;19.80;12.43;;;11.50;99.90;;;;;;4986267;28;20031;-74
2023/05/16 09:14:36;;;;;;;18.83;12.20;;;11.60;99.90;;;;;;4985724;28;20026;-73
2023/05/16 09:17:08;;;;;;;18.83;11.25;;;11.60;99.90;;;;;;4971311;28;20039;-74
2023/05/16 09:19:43;;;;;;;22.23;12.95;;;11.60;99.90;;;;;;4969183;28;20131;-74
2023/05/16 09:22:13;;;;;;;18.52;12.25;;;11.60;99.90;;;;;;4968925;28;20449;-74
2023/05/16 09:24:44;;;;;;;18.73;12.13;;;11.60;99.90;;;;;;4971510;28;20015;-73
2023/05/16 09:27:16;;;;;;;18.45;12.52;;;11.50;99.90;;;;;;4982101;28;20842;-73
2023/05/16 09:29:49;;;;;;;16.85;11.52;;;11.60;99.90;;;;;;4969700;28;20035;-74
2023/05/16 09:32:16;;;;;;;18.05;11.90;;;11.60;99.90;;;;;;4965591;28;20046;-74
2023/05/16 09:34:48;;;;;;;16.00;11.23;;;11.60;99.90;;;;;;4969347;28;20039;-73
2023/05/16 09:37:17;;;;;;;16.55;10.95;;;11.50;99.90;;;;;;4969518;28;20597;-73
2023/05/16 09:39:51;;;;;;;16.73;11.40;;;11.50;99.90;;;;;;4968078;28;20027;-73
2023/05/16 09:42:18;;;;;;;19.77;12.77;;;11.50;99.90;;;;;;4974425;28;20026;-73
2023/05/16 09:44:55;;;;;;;21.30;12.55;;;11.50;99.90;;;;;;4970099;28;20103;-73
2023/05/16 09:47:26;;;;;;;23.55;13.80;;;11.50;99.90;;;;;;4971161;28;20035;-74
2023/05/16 09:49:55;;;;;;;19.60;12.50;;;11.40;99.90;;;;;;4970793;28;20042;-73
2023/05/16 09:52:21;;;;;;;24.58;13.43;;;11.40;99.90;;;;;;4970505;28;20035;-73
2023/05/16 09:54:48;;;;;;;18.35;12.30;;;11.40;99.90;;;;;;4970759;28;20027;-73
2023/05/16 09:57:25;;;;;;;22.02;13.65;;;11.50;99.90;;;;;;4975614;28;20093;-74
2023/05/16 09:59:51;;;;;;;21.85;14.57;;;11.50;99.90;;;;;;4973577;28;20031;-73
2023/05/16 10:02:17;;;;;;;28.70;15.88;;;11.50;99.90;;;;;;4972563;28;20114;-74
2023/05/16 10:04:44;;;;;;;25.92;15.43;;;11.50;99.90;;;;;;4971056;28;20094;-74
2023/05/16 10:07:12;;;;;;;28.83;16.10;;;11.50;99.90;;;;;;4973408;28;20027;-74
2023/05/16 10:09:42;;;;;;;22.95;15.40;;;11.50;99.90;;;;;;4974213;28;20097;-74
2023/05/16 10:12:12;;;;;;;23.75;15.15;;;11.50;99.90;;;;;;4973180;28;20481;-74
2023/05/16 10:14:40;;;;;;;24.88;15.73;;;11.50;99.90;;;;;;4976247;28;20498;-74
2023/05/16 10:17:10;;;;;;;21.08;14.45;;;11.50;99.90;;;;;;4971980;28;20030;-73
2023/05/16 10:19:38;;;;;;;22.80;14.60;;;11.50;99.90;;;;;;4971598;28;20043;-74
2023/05/16 10:22:05;;;;;;;22.95;15.25;;;11.40;99.90;;;;;;4989374;28;20117;-74
2023/05/16 10:24:48;;;;;;;23.77;14.32;;;11.40;99.90;;;;;;4970451;28;20033;-73
2023/05/16 10:27:15;;;;;;;23.65;14.70;;;11.40;99.90;;;;;;4975638;28;20089;-74
2023/05/16 10:29:42;;;;;;;22.20;14.57;;;11.50;99.90;;;;;;4976825;28;20101;-73
2023/05/16 10:32:09;;;;;;;23.65;15.55;;;11.40;99.90;;;;;;4972701;28;20092;-73
2023/05/16 10:34:39;;;;;;;22.75;14.90;;;11.40;99.90;;;;;;4967077;28;20031;-73
2023/05/16 10:37:06;;;;;;;29.77;16.83;;;11.40;99.90;;;;;;4981089;28;20497;-73
2023/05/16 10:39:32;;;;;;;25.45;16.70;;;11.40;99.90;;;;;;4972823;28;20026;-74
2023/05/16 10:42:01;;;;;;;22.38;14.95;;;11.40;99.90;;;;;;4971707;28;20490;-73
2023/05/16 10:44:32;;;;;;;26.98;16.90;;;11.40;99.90;;;;;;4972122;28;20082;-73
2023/05/16 10:46:59;;;;;;;24.27;16.67;;;11.30;99.90;;;;;;4968470;28;20022;-73
2023/05/16 10:49:26;;;;;;;28.20;17.27;;;11.30;99.90;;;;;;4970445;28;20077;-73
2023/05/16 10:52:12;;;;;;;27.33;17.45;;;11.40;99.90;;;;;;4971257;28;20045;-72
2023/05/16 10:54:42;;;;;;;24.60;16.48;;;11.40;99.90;;;;;;4971623;28;20027;-73
2023/05/16 10:57:10;;;;;;;26.83;16.63;;;11.40;99.90;;;;;;4974711;28;20074;-73
2023/05/16 11:00:00;;;;;;;28.00;16.98;;;11.40;99.90;;;;;;4968701;28;20031;-74
2023/05/16 11:02:40;;;;;;;29.80;16.65;;;11.40;99.90;;;;;;4980341;23;20054;-82
2023/05/16 11:05:13;;;;;;;32.80;19.40;;;11.30;99.90;;;;;;4982465;28;20033;-82
2023/05/16 11:07:38;;;;;;;29.52;17.77;;;11.40;99.90;;;;;;4989997;28;20026;-82
2023/05/16 11:10:17;;;;;;;30.85;17.23;;;11.40;99.90;;;;;;4978146;28;20280;-81
2023/05/16 11:12:48;;;;;;;26.50;17.73;;;11.40;99.90;;;;;;4984059;28;20051;-82
2023/05/16 11:15:23;;;;;;;30.13;17.75;;;11.40;99.90;;;;;;4997894;28;20079;-82
2023/05/16 11:17:49;;;;;;;30.83;19.02;;;11.40;99.90;;;;;;4963896;28;20587;-82
2023/05/16 11:20:35;;;;;;;30.58;18.45;;;11.30;99.90;;;;;;4962891;28;20027;-82
2023/05/16 11:23:21;;;;;;;29.85;18.30;;;11.30;99.90;;;;;;4962556;28;20027;-84
2023/05/16 11:25:49;;;;;;;29.23;18.77;;;11.30;99.90;;;;;;4962121;28;20059;-82
2023/05/16 11:28:17;;;;;;;30.80;18.75;;;11.40;99.90;;;;;;4945702;28;20046;-82
2023/05/16 11:30:47;;;;;;;37.45;19.98;;;11.40;99.90;;;;;;4961372;28;20023;-82
2023/05/16 11:33:13;;;;;;;30.00;18.30;;;11.30;99.90;;;;;;4963648;28;20080;-81
2023/05/16 11:35:38;;;;;;;35.78;20.70;;;11.30;99.90;;;;;;4960211;28;20468;-81
2023/05/16 11:38:04;;;;;;;31.25;18.77;;;11.30;99.90;;;;;;4957835;28;20031;-83
2023/05/16 11:40:30;;;;;;;29.92;19.15;;;11.30;99.90;;;;;;4963745;28;20039;-82
2023/05/16 11:43:02;;;;;;;34.60;19.80;;;11.30;99.90;;;;;;4959486;28;20023;-81
2023/05/16 11:45:28;;;;;;;33.03;19.55;;;11.40;99.90;;;;;;4960699;28;20071;-82
2023/05/16 11:47:54;;;;;;;27.77;18.15;;;11.40;99.90;;;;;;4958102;28;20039;-81
2023/05/16 11:50:24;;;;;;;36.50;20.17;;;11.50;99.90;;;;;;4963209;28;21115;-82
2023/05/16 11:52:52;;;;;;;34.40;19.58;;;11.50;99.90;;;;;;4972744;28;20131;-82
2023/05/16 11:55:23;;;;;;;36.78;20.55;;;11.50;99.90;;;;;;4960090;28;20019;-82
2023/05/16 11:57:50;;;;;;;35.25;18.98;;;11.60;99.90;;;;;;4961520;28;20047;-83
2023/05/16 12:00:24;;;;;;;32.65;19.05;;;11.60;99.90;;;;;;4957556;28;20515;-82
2023/05/16 12:02:50;;;;;;;30.55;18.30;;;11.70;99.90;;;;;;4963318;28;20059;-83
2023/05/16 12:05:17;;;;;;;31.40;19.60;;;11.70;99.90;;;;;;4957058;28;20042;-82
2023/05/16 12:07:44;;;;;;;32.00;18.70;;;11.80;99.90;;;;;;4963019;28;20487;-83
2023/05/16 12:10:12;;;;;;;35.95;19.20;;;11.80;99.90;;;;;;4965599;28;20027;-82
2023/05/16 12:12:51;;;;;;;34.88;18.27;;;11.70;99.90;;;;;;4956124;28;20046;-82
2023/05/16 12:15:17;;;;;;;35.60;19.05;;;11.80;99.90;;;;;;4953703;28;20031;-82
2023/05/16 12:17:44;;;;;;;28.30;17.17;;;11.70;99.90;;;;;;4960167;28;20126;-81
2023/05/16 12:20:13;;;;;;;34.40;19.10;;;11.70;99.90;;;;;;4961459;28;20116;-81
2023/05/16 12:22:47;;;;;;;35.00;19.02;;;11.70;99.90;;;;;;4958410;28;20550;-82
2023/05/16 12:25:32;;;;;;;30.52;18.50;;;11.70;99.90;;;;;;4957799;28;20085;-81
2023/05/16 12:28:02;;;;;;;32.53;18.10;;;11.80;99.90;;;;;;4960036;28;20015;-81
2023/05/16 12:30:30;;;;;;;29.70;17.77;;;11.80;99.90;;;;;;4958302;28;20066;-82
2023/05/16 12:33:08;;;;;;;33.63;17.80;;;11.80;99.90;;;;;;4958014;28;20028;-83
2023/05/16 12:35:36;;;;;;;26.65;15.82;;;11.90;99.90;;;;;;4959919;28;20046;-83
2023/05/16 12:38:10;;;;;;;24.83;13.57;;;11.90;99.90;;;;;;4960884;28;20035;-83